sensor_id;sensor_type;location;lat;lon;timestamp;pressure;altitude;pressure_sealevel;temperature;humidity
77149;BME280;66122;47.130;16.844;2023-05-07T00:01:50;99779.47;;;12.40;100.00
77149;BME280;66122;47.130;16.844;2023-05-07T00:11:52;99750.34;;;12.39;100.00
77149;BME280;66122;47.130;16.844;2023-05-07T00:21:55;99769.56;;;12.00;100.00
77149;BME280;66122;47.130;16.844;2023-05-07T00:31:59;99779.38;;;11.68;100.00
77149;BME280;66122;47.130;16.844;2023-05-07T00:42:02;99753.03;;;11.95;100.00
77149;BME280;66122;47.130;16.844;2023-05-07T00:52:11;99764.06;;;12.03;100.00
77149;BME280;66122;47.130;16.844;2023-05-07T01:02:13;99749.81;;;12.04;100.00
77149;BME280;66122;47.130;16.844;2023-05-07T01:12:16;99758.22;;;11.21;100.00
77149;BME280;66122;47.130;16.844;2023-05-07T01:22:29;99738.44;;;11.72;100.00
77149;BME280;66122;47.130;16.844;2023-05-07T01:33:22;99732.44;;;11.68;100.00
77149;BME280;66122;47.130;16.844;2023-05-07T01:42:58;99735.38;;;11.64;100.00
77149;BME280;66122;47.130;16.844;2023-05-07T01:53:01;99736.44;;;11.46;100.00
77149;BME280;66122;47.130;16.844;2023-05-07T02:03:05;99724.84;;;11.17;100.00
77149;BME280;66122;47.130;16.844;2023-05-07T02:13:15;99735.63;;;11.14;100.00
77149;BME280;66122;47.130;16.844;2023-05-07T02:23:18;99726.47;;;10.88;100.00
77149;BME280;66122;47.130;16.844;2023-05-07T02:33:21;99724.84;;;11.17;100.00
77149;BME280;66122;47.130;16.844;2023-05-07T02:43:24;99735.59;;;11.45;100.00
77149;BME280;66122;47.130;16.844;2023-05-07T02:53:27;99725.94;;;11.44;100.00
77149;BME280;66122;47.130;16.844;2023-05-07T03:03:31;99739.09;;;11.91;100.00
77149;BME280;66122;47.130;16.844;2023-05-07T03:13:34;99763.56;;;11.96;100.00
77149;BME280;66122;47.130;16.844;2023-05-07T03:23:37;99784.94;;;12.09;100.00
77149;BME280;66122;47.130;16.844;2023-05-07T03:33:50;99796.16;;;11.84;100.00
77149;BME280;66122;47.130;16.844;2023-05-07T03:43:53;99798.91;;;11.83;100.00
77149;BME280;66122;47.130;16.844;2023-05-07T03:53:56;99807.75;;;11.97;100.00
77149;BME280;66122;47.130;16.844;2023-05-07T04:04:01;99801.97;;;11.91;100.00
77149;BME280;66122;47.130;16.844;2023-05-07T04:14:04;99808.66;;;12.12;100.00
77149;BME280;66122;47.130;16.844;2023-05-07T04:24:07;99805.06;;;11.83;100.00
77149;BME280;66122;47.130;16.844;2023-05-07T04:34:10;99819.31;;;12.26;100.00
77149;BME280;66122;47.130;16.844;2023-05-07T04:44:13;99847.97;;;12.65;100.00
77149;BME280;66122;47.130;16.844;2023-05-07T04:54:17;99870.28;;;12.77;100.00
77149;BME280;66122;47.130;16.844;2023-05-07T05:04:20;99861.75;;;12.72;100.00
77149;BME280;66122;47.130;16.844;2023-05-07T05:14:23;99863.13;;;12.49;100.00
77149;BME280;66122;47.130;16.844;2023-05-07T05:24:27;99872.97;;;13.19;100.00
77149;BME280;66122;47.130;16.844;2023-05-07T05:34:29;99881.16;;;13.72;100.00
77149;BME280;66122;47.130;16.844;2023-05-07T05:44:33;99886.13;;;14.44;98.52
77149;BME280;66122;47.130;16.844;2023-05-07T05:54:36;99884.31;;;14.70;97.18
77149;BME280;66122;47.130;16.844;2023-05-07T06:04:39;99880.25;;;15.28;94.11
77149;BME280;66122;47.130;16.844;2023-05-07T06:14:43;99883.97;;;15.87;91.68
77149;BME280;66122;47.130;16.844;2023-05-07T06:24:46;99879.81;;;16.65;88.54
77149;BME280;66122;47.130;16.844;2023-05-07T06:34:49;99882.66;;;17.08;86.22
77149;BME280;66122;47.130;16.844;2023-05-07T06:44:52;99880.75;;;16.99;85.82
77149;BME280;66122;47.130;16.844;2023-05-07T06:54:55;99888.72;;;17.88;82.26
77149;BME280;66122;47.130;16.844;2023-05-07T07:04:59;99888.06;;;18.07;79.75
77149;BME280;66122;47.130;16.844;2023-05-07T07:15:02;99905.69;;;17.78;79.96
77149;BME280;66122;47.130;16.844;2023-05-07T07:25:05;99905.72;;;17.33;82.44
77149;BME280;66122;47.130;16.844;2023-05-07T07:35:09;99889.47;;;17.90;81.41
77149;BME280;66122;47.130;16.844;2023-05-07T07:45:13;99886.41;;;18.59;78.17
77149;BME280;66122;47.130;16.844;2023-05-07T07:55:20;99880.81;;;19.13;77.82
77149;BME280;66122;47.130;16.844;2023-05-07T08:05:27;99892.28;;;19.15;78.80
77149;BME280;66122;47.130;16.844;2023-05-07T08:15:30;99903.91;;;19.25;77.07
77149;BME280;66122;47.130;16.844;2023-05-07T08:25:34;99915.94;;;20.01;72.92
77149;BME280;66122;47.130;16.844;2023-05-07T08:35:37;99907.06;;;20.39;72.16
77149;BME280;66122;47.130;16.844;2023-05-07T08:45:45;99920.84;;;20.36;71.33
77149;BME280;66122;47.130;16.844;2023-05-07T08:55:50;99925.78;;;20.70;70.51
77149;BME280;66122;47.130;16.844;2023-05-07T09:05:53;99911.13;;;21.85;67.12
77149;BME280;66122;47.130;16.844;2023-05-07T09:15:57;99918.06;;;22.14;65.31
77149;BME280;66122;47.130;16.844;2023-05-07T09:26:00;99905.88;;;22.10;64.54
77149;BME280;66122;47.130;16.844;2023-05-07T09:36:09;99922.41;;;22.25;62.09
77149;BME280;66122;47.130;16.844;2023-05-07T09:46:15;99906.53;;;22.75;63.31
77149;BME280;66122;47.130;16.844;2023-05-07T09:56:25;99909.59;;;23.06;60.34
77149;BME280;66122;47.130;16.844;2023-05-07T10:06:28;99911.63;;;23.30;58.92
77149;BME280;66122;47.130;16.844;2023-05-07T10:16:35;99921.81;;;23.62;58.68
77149;BME280;66122;47.130;16.844;2023-05-07T10:26:45;99915.66;;;23.00;57.76
77149;BME280;66122;47.130;16.844;2023-05-07T10:36:50;99921.69;;;22.94;60.05
77149;BME280;66122;47.130;16.844;2023-05-07T10:57:33;99904.31;;;23.90;56.98
77149;BME280;66122;47.130;16.844;2023-05-07T11:07:55;99904.78;;;22.56;60.61
77149;BME280;66122;47.130;16.844;2023-05-07T11:18:03;99907.59;;;23.34;59.62
77149;BME280;66122;47.130;16.844;2023-05-07T11:28:11;99917.34;;;23.27;58.13
77149;BME280;66122;47.130;16.844;2023-05-07T11:38:24;99897.34;;;24.38;56.37
77149;BME280;66122;47.130;16.844;2023-05-07T11:48:27;99893.16;;;25.55;51.78
77149;BME280;66122;47.130;16.844;2023-05-07T11:58:30;99893.16;;;23.93;54.58
77149;BME280;66122;47.130;16.844;2023-05-07T12:08:33;99891.91;;;24.38;52.68
77149;BME280;66122;47.130;16.844;2023-05-07T12:18:38;99883.25;;;25.79;47.93
77149;BME280;66122;47.130;16.844;2023-05-07T12:28:41;99876.78;;;26.11;47.34
77149;BME280;66122;47.130;16.844;2023-05-07T12:38:44;99887.44;;;23.54;54.84
77149;BME280;66122;47.130;16.844;2023-05-07T12:48:48;99883.44;;;24.57;53.43
77149;BME280;66122;47.130;16.844;2023-05-07T12:58:50;99878.56;;;24.61;52.34
77149;BME280;66122;47.130;16.844;2023-05-07T13:08:53;99867.28;;;23.91;51.57
77149;BME280;66122;47.130;16.844;2023-05-07T13:18:56;99856.03;;;22.76;57.42
77149;BME280;66122;47.130;16.844;2023-05-07T13:28:58;99849.56;;;23.54;54.97
77149;BME280;66122;47.130;16.844;2023-05-07T13:39:01;99851.88;;;22.72;55.11
77149;BME280;66122;47.130;16.844;2023-05-07T13:49:03;99845.44;;;23.84;53.81
77149;BME280;66122;47.130;16.844;2023-05-07T13:59:06;99833.16;;;24.46;51.32
77149;BME280;66122;47.130;16.844;2023-05-07T14:09:08;99841.38;;;23.12;52.67
77149;BME280;66122;47.130;16.844;2023-05-07T14:19:14;99841.66;;;23.69;49.80
77149;BME280;66122;47.130;16.844;2023-05-07T14:29:17;99837.66;;;23.97;50.49
77149;BME280;66122;47.130;16.844;2023-05-07T14:39:25;99838.81;;;22.41;54.28
77149;BME280;66122;47.130;16.844;2023-05-07T14:49:28;99826.56;;;22.73;54.12
77149;BME280;66122;47.130;16.844;2023-05-07T14:59:31;99827.94;;;21.80;56.56
77149;BME280;66122;47.130;16.844;2023-05-07T15:09:34;99831.13;;;23.24;51.29
77149;BME280;66122;47.130;16.844;2023-05-07T15:19:37;99841.47;;;23.70;49.56
77149;BME280;66122;47.130;16.844;2023-05-07T15:29:40;99837.97;;;22.76;52.14
77149;BME280;66122;47.130;16.844;2023-05-07T15:39:42;99852.34;;;22.06;55.43
77149;BME280;66122;47.130;16.844;2023-05-07T15:49:45;99841.03;;;21.11;59.22
77149;BME280;66122;47.130;16.844;2023-05-07T15:59:48;99840.97;;;20.83;59.93
77149;BME280;66122;47.130;16.844;2023-05-07T16:09:50;99840.63;;;20.40;60.31
77149;BME280;66122;47.130;16.844;2023-05-07T16:19:53;99831.50;;;19.64;63.26
77149;BME280;66122;47.130;16.844;2023-05-07T16:29:55;99836.28;;;19.51;65.84
77149;BME280;66122;47.130;16.844;2023-05-07T16:40:01;99826.53;;;19.19;65.35
77149;BME280;66122;47.130;16.844;2023-05-07T16:50:06;99838.47;;;19.05;64.51
77149;BME280;66122;47.130;16.844;2023-05-07T17:00:09;99857.13;;;18.77;65.83
77149;BME280;66122;47.130;16.844;2023-05-07T17:10:12;99864.34;;;18.44;67.76
77149;BME280;66122;47.130;16.844;2023-05-07T17:20:15;99877.84;;;18.33;67.20
77149;BME280;66122;47.130;16.844;2023-05-07T17:30:18;99885.41;;;18.07;67.58
77149;BME280;66122;47.130;16.844;2023-05-07T17:40:20;99914.56;;;17.89;68.03
77149;BME280;66122;47.130;16.844;2023-05-07T17:50:23;99910.94;;;17.46;69.55
77149;BME280;66122;47.130;16.844;2023-05-07T18:00:26;99919.69;;;17.14;71.60
77149;BME280;66122;47.130;16.844;2023-05-07T18:10:29;99934.13;;;16.55;72.91
77149;BME280;66122;47.130;16.844;2023-05-07T18:20:32;99952.13;;;16.53;72.66
77149;BME280;66122;47.130;16.844;2023-05-07T18:30:35;99971.25;;;16.35;71.38
77149;BME280;66122;47.130;16.844;2023-05-07T18:40:38;99971.19;;;16.24;71.20
77149;BME280;66122;47.130;16.844;2023-05-07T18:50:45;99992.38;;;15.78;72.83
77149;BME280;66122;47.130;16.844;2023-05-07T19:00:49;100010.69;;;15.72;72.91
77149;BME280;66122;47.130;16.844;2023-05-07T19:10:54;100020.75;;;15.55;73.93
77149;BME280;66122;47.130;16.844;2023-05-07T19:20:57;100046.38;;;15.33;73.20
77149;BME280;66122;47.130;16.844;2023-05-07T19:31:00;100065.69;;;14.84;71.40
77149;BME280;66122;47.130;16.844;2023-05-07T19:41:03;100091.50;;;14.57;70.98
77149;BME280;66122;47.130;16.844;2023-05-07T19:51:05;100114.09;;;14.37;71.21
77149;BME280;66122;47.130;16.844;2023-05-07T20:01:08;100110.50;;;14.24;69.20
77149;BME280;66122;47.130;16.844;2023-05-07T20:11:11;100119.47;;;13.94;71.08
77149;BME280;66122;47.130;16.844;2023-05-07T20:21:15;100126.09;;;13.59;70.14
77149;BME280;66122;47.130;16.844;2023-05-07T20:31:18;100125.91;;;13.18;70.51
77149;BME280;66122;47.130;16.844;2023-05-07T20:41:21;100167.63;;;13.02;69.84
77149;BME280;66122;47.130;16.844;2023-05-07T20:51:26;100185.03;;;12.91;69.63
77149;BME280;66122;47.130;16.844;2023-05-07T21:01:29;100177.31;;;12.56;69.13
77149;BME280;66122;47.130;16.844;2023-05-07T21:11:31;100193.84;;;12.29;70.57
77149;BME280;66122;47.130;16.844;2023-05-07T21:21:34;100200.91;;;12.13;69.57
77149;BME280;66122;47.130;16.844;2023-05-07T21:31:36;100203.50;;;11.97;70.37
77149;BME280;66122;47.130;16.844;2023-05-07T21:41:39;100218.50;;;11.64;72.21
77149;BME280;66122;47.130;16.844;2023-05-07T21:51:42;100226.09;;;11.18;73.97
77149;BME280;66122;47.130;16.844;2023-05-07T22:01:44;100247.19;;;11.03;73.94
77149;BME280;66122;47.130;16.844;2023-05-07T22:11:47;100253.03;;;10.92;74.86
77149;BME280;66122;47.130;16.844;2023-05-07T22:21:49;100248.16;;;10.83;74.81
77149;BME280;66122;47.130;16.844;2023-05-07T22:31:52;100271.28;;;10.61;75.07
77149;BME280;66122;47.130;16.844;2023-05-07T22:41:55;100279.03;;;10.26;75.54
77149;BME280;66122;47.130;16.844;2023-05-07T22:51:57;100268.78;;;10.18;76.54
77149;BME280;66122;47.130;16.844;2023-05-07T23:02:00;100279.19;;;10.01;75.91
77149;BME280;66122;47.130;16.844;2023-05-07T23:12:04;100275.38;;;9.88;76.10
77149;BME280;66122;47.130;16.844;2023-05-07T23:22:06;100265.56;;;9.70;76.86
77149;BME280;66122;47.130;16.844;2023-05-07T23:32:09;100262.09;;;9.48;77.91
77149;BME280;66122;47.130;16.844;2023-05-07T23:42:11;100242.53;;;9.30;78.89
77149;BME280;66122;47.130;16.844;2023-05-07T23:52:14;100252.50;;;9.23;78.00
